Vejrstation Sortsø Strand
Vejrstation Sortsø Strands historiske vejrdata
 
Daily Summary for April 20, 2021 Units:  Metric    English   Both
Daily Weekly Monthly Yearly Custom
  Current: High: Low: Average:
Temperature: 11.8 °C 11.8 °C 7.7 °C 8.8 °C
Dew Point: 4.7 °C 5.9 °C 3.5 °C 4.4 °C
Humidity: 62% 81% 62% 74%
Wind Speed: 11km/h 23km/h 0km/h 14.5km/h
Wind Gust: 9km/h 20km/h - -
WindNNE - - SE
Pressure: 1016.9 hPa 1020.3 hPa 1016.9 hPa -
Precipitation: 0.00 mm      
Historical Graphs
 
 
Tabular Data for April 20, 2021
Time Temperature Dew Point Pressure Wind Wind Speed Wind Gust Humidity Rainfall Rate (Hourly) solar
00:04 8.4 °C 4.4 °C 1020.3 hPa NNE 21 km/h 18 km/h 76% 0.00 mm 0.00 W/m2
00:09 8.4 °C 4.4 °C 1020.3 hPa NNE 21 km/h 19 km/h 76% 0.00 mm 0.00 W/m2
00:14 8.4 °C 4.4 °C 1020.2 hPa NNE 19 km/h 16 km/h 76% 0.00 mm 0.00 W/m2
00:19 8.4 °C 4.4 °C 1020.2 hPa NNE 21 km/h 18 km/h 76% 0.00 mm 0.00 W/m2
00:24 8.4 °C 4.4 °C 1020.2 hPa NNE 20 km/h 19 km/h 76% 0.00 mm 0.00 W/m2
00:29 8.4 °C 4.4 °C 1020.2 hPa NNE 23 km/h 20 km/h 76% 0.00 mm 0.00 W/m2
00:34 8.4 °C 4.2 °C 1020.2 hPa NNE 23 km/h 20 km/h 75% 0.00 mm 0.00 W/m2
00:39 8.4 °C 4.3 °C 1020.2 hPa NNE 23 km/h 19 km/h 75% 0.00 mm 0.00 W/m2
00:44 8.4 °C 4.3 °C 1020.2 hPa NNE 19 km/h 17 km/h 76% 0.00 mm 0.00 W/m2
00:49 8.3 °C 4.3 °C 1020.2 hPa NNE 20 km/h 19 km/h 76% 0.00 mm 0.00 W/m2
00:54 8.3 °C 4.3 °C 1020.1 hPa NNE 19 km/h 17 km/h 76% 0.00 mm 0.00 W/m2
00:59 8.3 °C 4.3 °C 1020.1 hPa NNE 19 km/h 18 km/h 76% 0.00 mm 0.00 W/m2
01:04 8.3 °C 4.3 °C 1020.1 hPa NNE 21 km/h 18 km/h 76% 0.00 mm 0.00 W/m2
01:09 8.4 °C 4.3 °C 1020.1 hPa NNE 21 km/h 19 km/h 75% 0.00 mm 0.00 W/m2
01:14 8.4 °C 4.4 °C 1020.0 hPa NNE 19 km/h 16 km/h 76% 0.00 mm 0.00 W/m2
01:19 8.3 °C 4.3 °C 1020.0 hPa NNE 19 km/h 14 km/h 76% 0.00 mm 0.00 W/m2
01:24 8.3 °C 4.3 °C 1020.0 hPa NNE 19 km/h 16 km/h 76% 0.00 mm 0.00 W/m2
01:29 8.4 °C 4.4 °C 1020.0 hPa NNE 19 km/h 16 km/h 76% 0.00 mm 0.00 W/m2
01:34 8.5 °C 4.5 °C 1019.9 hPa NNE 21 km/h 17 km/h 76% 0.00 mm 0.00 W/m2
01:39 8.6 °C 4.6 °C 1019.9 hPa NNE 20 km/h 16 km/h 76% 0.00 mm 0.00 W/m2
01:44 8.6 °C 4.6 °C 1019.8 hPa NNE 19 km/h 16 km/h 76% 0.00 mm 0.00 W/m2
01:49 8.6 °C 4.8 °C 1019.8 hPa NNE 19 km/h 16 km/h 77% 0.00 mm 0.00 W/m2
01:54 8.6 °C 4.8 °C 1019.8 hPa NNE 19 km/h 17 km/h 77% 0.00 mm 0.00 W/m2
01:59 8.5 °C 4.5 °C 1019.7 hPa NNE 17 km/h 15 km/h 76% 0.00 mm 0.00 W/m2
02:04 8.4 °C 4.6 °C 1019.7 hPa NNE 17 km/h 14 km/h 77% 0.00 mm 0.00 W/m2
02:09 8.3 °C 4.6 °C 1019.6 hPa NNE 17 km/h 14 km/h 77% 0.00 mm 0.00 W/m2
02:14 8.3 °C 4.3 °C 1019.6 hPa NNE 15 km/h 11 km/h 76% 0.00 mm 0.00 W/m2
02:19 8.3 °C 4.5 °C 1019.5 hPa NNE 15 km/h 11 km/h 77% 0.00 mm 0.00 W/m2
02:24 8.2 °C 4.5 °C 1019.4 hPa NNE 11 km/h 10 km/h 78% 0.00 mm 0.00 W/m2
02:29 8.2 °C 4.6 °C 1019.4 hPa NNE 17 km/h 13 km/h 78% 0.00 mm 0.00 W/m2
02:34 8.2 °C 4.6 °C 1019.3 hPa NNE 11 km/h 10 km/h 78% 0.00 mm 0.00 W/m2
02:39 8.1 °C 4.4 °C 1019.3 hPa NNE 11 km/h 11 km/h 78% 0.00 mm 0.00 W/m2
02:44 8.0 °C 4.5 °C 1019.3 hPa NNE 8 km/h 8 km/h 79% 0.00 mm 0.00 W/m2
02:49 7.9 °C 4.4 °C 1019.2 hPa NNE 11 km/h 9 km/h 79% 0.00 mm 0.00 W/m2
02:54 7.9 °C 4.4 °C 1019.2 hPa NNE 11 km/h 9 km/h 79% 0.00 mm 0.00 W/m2
02:59 7.9 °C 4.7 °C 1019.2 hPa NNE 10 km/h 8 km/h 80% 0.00 mm 0.00 W/m2
03:04 7.8 °C 4.7 °C 1019.2 hPa NNE 8 km/h 7 km/h 81% 0.00 mm 0.00 W/m2
03:09 7.8 °C 4.7 °C 1019.2 hPa NNE 7 km/h 6 km/h 81% 0.00 mm 0.00 W/m2
03:14 7.7 °C 4.6 °C 1019.1 hPa NNE 10 km/h 8 km/h 81% 0.00 mm 0.00 W/m2
03:19 7.7 °C 4.6 °C 1019.1 hPa NNE 11 km/h 10 km/h 81% 0.00 mm 0.00 W/m2
03:24 7.7 °C 4.6 °C 1019.1 hPa NNE 15 km/h 11 km/h 81% 0.00 mm 0.00 W/m2
03:29 7.7 °C 4.6 °C 1019.1 hPa NNE 15 km/h 12 km/h 81% 0.00 mm 0.00 W/m2
03:34 7.8 °C 4.6 °C 1019.0 hPa NNE 15 km/h 13 km/h 81% 0.00 mm 0.00 W/m2
03:39 7.8 °C 4.6 °C 1018.9 hPa NNE 15 km/h 12 km/h 80% 0.00 mm 0.00 W/m2
03:44 7.8 °C 4.5 °C 1018.9 hPa NNE 15 km/h 11 km/h 80% 0.00 mm 0.00 W/m2
03:49 7.8 °C 4.6 °C 1018.9 hPa NNE 13 km/h 11 km/h 80% 0.00 mm 0.00 W/m2
03:54 7.8 °C 4.6 °C 1018.8 hPa NNE 13 km/h 11 km/h 80% 0.00 mm 0.00 W/m2
03:59 7.8 °C 4.7 °C 1018.8 hPa NNE 13 km/h 11 km/h 81% 0.00 mm 0.00 W/m2
04:04 7.8 °C 4.7 °C 1018.8 hPa NNE 13 km/h 12 km/h 81% 0.00 mm 0.00 W/m2
04:09 7.8 °C 4.8 °C 1018.8 hPa NNE 13 km/h 11 km/h 81% 0.00 mm 0.00 W/m2
04:14 7.8 °C 4.7 °C 1018.8 hPa NNE 13 km/h 10 km/h 81% 0.00 mm 0.00 W/m2
04:19 7.8 °C 4.7 °C 1018.8 hPa NNE 11 km/h 9 km/h 81% 0.00 mm 0.00 W/m2
04:24 7.7 °C 4.5 °C 1018.8 hPa NNE 11 km/h 10 km/h 80% 0.00 mm 0.00 W/m2
04:29 7.8 °C 4.6 °C 1018.8 hPa NNE 11 km/h 10 km/h 80% 0.00 mm 0.00 W/m2
04:34 7.8 °C 4.8 °C 1018.8 hPa NNE 9 km/h 8 km/h 81% 0.00 mm 0.00 W/m2
04:39 7.8 °C 4.7 °C 1018.8 hPa NNE 11 km/h 10 km/h 81% 0.00 mm 0.00 W/m2
04:44 7.7 °C 4.4 °C 1018.8 hPa NNE 11 km/h 9 km/h 80% 0.00 mm 0.00 W/m2
04:49 7.7 °C 4.3 °C 1018.7 hPa NNE 10 km/h 8 km/h 79% 0.00 mm 0.00 W/m2
04:54 7.8 °C 4.4 °C 1018.7 hPa NNE 9 km/h 8 km/h 79% 0.00 mm 0.00 W/m2
04:59 7.7 °C 4.3 °C 1018.7 hPa NNE 10 km/h 8 km/h 79% 0.00 mm 0.00 W/m2
05:04 7.7 °C 4.3 °C 1018.7 hPa NNE 10 km/h 8 km/h 79% 0.00 mm 0.00 W/m2
05:09 7.7 °C 4.3 °C 1018.6 hPa NNE 15 km/h 10 km/h 79% 0.00 mm 0.00 W/m2
05:14 7.8 °C 3.9 °C 1018.6 hPa NNE 17 km/h 13 km/h 77% 0.00 mm 0.00 W/m2
05:19 7.8 °C 3.9 °C 1018.6 hPa North 17 km/h 13 km/h 76% 0.00 mm 0.00 W/m2
05:24 7.8 °C 3.9 °C 1018.5 hPa North 15 km/h 12 km/h 76% 0.00 mm 0.00 W/m2
05:29 7.8 °C 3.9 °C 1018.5 hPa North 17 km/h 13 km/h 76% 0.00 mm 0.00 W/m2
05:34 7.8 °C 3.9 °C 1018.5 hPa North 15 km/h 11 km/h 76% 0.00 mm 0.00 W/m2
05:39 7.8 °C 3.8 °C 1018.4 hPa North 16 km/h 13 km/h 76% 0.00 mm 0.00 W/m2
05:44 7.8 °C 4.0 °C 1018.4 hPa North 17 km/h 12 km/h 77% 0.00 mm 0.00 W/m2
05:49 7.8 °C 4.0 °C 1018.3 hPa North 15 km/h 11 km/h 77% 0.00 mm 0.00 W/m2
05:54 7.7 °C 3.9 °C 1018.3 hPa North 13 km/h 10 km/h 77% 0.00 mm 0.00 W/m2
05:59 7.7 °C 3.9 °C 1018.3 hPa North 15 km/h 11 km/h 77% 0.00 mm 0.00 W/m2
06:04 7.7 °C 3.9 °C 1018.3 hPa North 11 km/h 10 km/h 77% 0.00 mm 0.00 W/m2
06:09 7.7 °C 3.9 °C 1018.3 hPa North 11 km/h 10 km/h 77% 0.00 mm 0.00 W/m2
06:14 7.7 °C 3.8 °C 1018.3 hPa North 11 km/h 10 km/h 76% 0.00 mm 0.00 W/m2
06:19 7.8 °C 3.8 °C 1018.3 hPa North 17 km/h 13 km/h 76% 0.00 mm 0.00 W/m2
06:24 7.9 °C 3.7 °C 1018.3 hPa North 18 km/h 15 km/h 75% 0.00 mm 0.00 W/m2
06:29 8.1 °C 3.7 °C 1018.2 hPa NNW 19 km/h 16 km/h 74% 0.00 mm 0.00 W/m2
06:34 8.2 °C 3.6 °C 1018.2 hPa NNW 19 km/h 17 km/h 73% 0.00 mm 0.00 W/m2
06:39 8.3 °C 3.7 °C 1018.2 hPa NNW 19 km/h 18 km/h 73% 0.00 mm 0.00 W/m2
06:44 8.4 °C 3.6 °C 1018.2 hPa NNW 19 km/h 18 km/h 72% 0.00 mm 0.00 W/m2
06:49 8.4 °C 3.6 °C 1018.2 hPa NNW 19 km/h 16 km/h 72% 0.00 mm 0.00 W/m2
06:54 8.4 °C 3.5 °C 1018.2 hPa NNW 19 km/h 17 km/h 71% 0.00 mm 0.00 W/m2
06:59 8.5 °C 3.6 °C 1018.2 hPa NNW 19 km/h 18 km/h 71% 0.00 mm 0.00 W/m2
07:04 8.5 °C 3.6 °C 1018.2 hPa NNW 20 km/h 17 km/h 71% 0.00 mm 0.00 W/m2
07:09 8.5 °C 3.6 °C 1018.1 hPa NNW 19 km/h 17 km/h 71% 0.00 mm 0.00 W/m2
07:14 8.5 °C 3.6 °C 1018.1 hPa NNW 21 km/h 16 km/h 71% 0.00 mm 0.00 W/m2
07:19 8.5 °C 3.6 °C 1018.2 hPa NNW 19 km/h 16 km/h 71% 0.00 mm 0.00 W/m2
07:24 8.5 °C 3.6 °C 1018.2 hPa NNW 19 km/h 16 km/h 71% 0.00 mm 0.00 W/m2
07:29 8.5 °C 3.6 °C 1018.1 hPa NNW 19 km/h 17 km/h 71% 0.00 mm 0.00 W/m2
07:34 8.5 °C 3.6 °C 1018.1 hPa NNW 19 km/h 17 km/h 71% 0.00 mm 0.00 W/m2
07:39 8.6 °C 3.6 °C 1018.0 hPa NNW 19 km/h 13 km/h 71% 0.00 mm 0.00 W/m2
07:44 8.6 °C 3.8 °C 1018.0 hPa NNW 17 km/h 12 km/h 72% 0.00 mm 0.00 W/m2
07:49 8.5 °C 3.9 °C 1018.0 hPa NNW 17 km/h 12 km/h 73% 0.00 mm 0.00 W/m2
07:54 8.6 °C 4.0 °C 1018.0 hPa NNW 19 km/h 15 km/h 73% 0.00 mm 0.00 W/m2
07:59 8.6 °C 4.0 °C 1018.0 hPa NNW 19 km/h 15 km/h 73% 0.00 mm 0.00 W/m2
08:04 8.6 °C 3.8 °C 1018.0 hPa NNW 17 km/h 15 km/h 72% 0.00 mm 0.00 W/m2
08:09 8.7 °C 4.1 °C 1018.0 hPa NNW 16 km/h 12 km/h 73% 0.00 mm 0.00 W/m2
08:14 8.7 °C 4.1 °C 1018.1 hPa NNW 11 km/h 10 km/h 73% 0.00 mm 0.00 W/m2
08:19 8.7 °C 4.1 °C 1018.1 hPa NNW 11 km/h 10 km/h 73% 0.00 mm 0.00 W/m2
08:24 8.7 °C 4.3 °C 1018.1 hPa North 15 km/h 12 km/h 74% 0.00 mm 0.00 W/m2
08:29 8.7 °C 4.1 °C 1018.0 hPa North 15 km/h 12 km/h 73% 0.00 mm 0.00 W/m2
08:34 8.7 °C 4.3 °C 1018.0 hPa North 11 km/h 10 km/h 74% 0.00 mm 0.00 W/m2
08:39 8.7 °C 4.3 °C 1018.0 hPa North 11 km/h 10 km/h 74% 0.00 mm 0.00 W/m2
08:44 8.8 °C 4.2 °C 1018.0 hPa North 13 km/h 11 km/h 73% 0.00 mm 0.00 W/m2
08:49 8.9 °C 4.3 °C 1017.9 hPa North 13 km/h 10 km/h 73% 0.00 mm 0.00 W/m2
08:54 9.1 °C 4.4 °C 1017.8 hPa North 11 km/h 9 km/h 73% 0.00 mm 0.00 W/m2
08:59 9.2 °C 4.5 °C 1017.8 hPa North 8 km/h 7 km/h 73% 0.00 mm 0.00 W/m2
09:04 9.3 °C 4.7 °C 1017.8 hPa North 6 km/h 2 km/h 73% 0.00 mm 0.00 W/m2
09:09 9.6 °C 5.3 °C 1017.8 hPa Calm     75% 0.00 mm 0.00 W/m2
09:14 9.7 °C 5.4 °C 1017.7 hPa North 6 km/h 6 km/h 75% 0.00 mm 0.00 W/m2
09:19 10.1 °C 5.4 °C 1017.6 hPa North 6 km/h 6 km/h 73% 0.00 mm 0.00 W/m2
09:24 10.4 °C 5.4 °C 1017.6 hPa NNW 8 km/h 7 km/h 73% 0.00 mm 0.00 W/m2
09:29 10.7 °C 5.3 °C 1017.6 hPa NNW 9 km/h 7 km/h 71% 0.00 mm 0.00 W/m2
09:34 10.8 °C 5.6 °C 1017.6 hPa NNW 10 km/h 6 km/h 70% 0.00 mm 0.00 W/m2
09:39 10.8 °C 5.9 °C 1017.5 hPa Calm     72% 0.00 mm 0.00 W/m2
09:44 10.7 °C 5.7 °C 1017.5 hPa NNW 11 km/h 7 km/h 71% 0.00 mm 0.00 W/m2
09:49 10.3 °C 5.7 °C 1017.5 hPa NNW 7 km/h 5 km/h 73% 0.00 mm 0.00 W/m2
09:54 10.2 °C 5.3 °C 1017.4 hPa North 11 km/h 11 km/h 72% 0.00 mm 0.00 W/m2
09:59 10.1 °C 5.2 °C 1017.4 hPa North 15 km/h 11 km/h 72% 0.00 mm 0.00 W/m2
10:04 10.2 °C 5.3 °C 1017.4 hPa North 10 km/h 9 km/h 72% 0.00 mm 0.00 W/m2
10:09 10.2 °C 5.2 °C 1017.4 hPa North 15 km/h 11 km/h 71% 0.00 mm 0.00 W/m2
10:14 10.3 °C 4.6 °C 1017.4 hPa North 17 km/h 15 km/h 68% 0.00 mm 0.00 W/m2
10:19 10.4 °C 4.7 °C 1017.4 hPa North 13 km/h 11 km/h 68% 0.00 mm 0.00 W/m2
10:24 10.6 °C 4.9 °C 1017.4 hPa North 8 km/h 7 km/h 69% 0.00 mm 0.00 W/m2
10:29 10.8 °C 5.4 °C 1017.4 hPa Calm     69% 0.00 mm 0.00 W/m2
10:34 11.1 °C 5.4 °C 1017.3 hPa North 11 km/h 10 km/h 69% 0.00 mm 0.00 W/m2
10:39 11.0 °C 5.3 °C 1017.3 hPa NNE 17 km/h 13 km/h 68% 0.00 mm 0.00 W/m2
10:44 10.8 °C 4.5 °C 1017.3 hPa NE 19 km/h 15 km/h 65% 0.00 mm 0.00 W/m2
10:49 10.9 °C 4.1 °C 1017.3 hPa NE 19 km/h 15 km/h 63% 0.00 mm 0.00 W/m2
10:54 10.9 °C 4.1 °C 1017.3 hPa NE 17 km/h 15 km/h 63% 0.00 mm 0.00 W/m2
10:59 10.9 °C 4.3 °C 1017.2 hPa NE 19 km/h 15 km/h 64% 0.00 mm 0.00 W/m2
11:04 10.8 °C 4.7 °C 1017.2 hPa NE 17 km/h 15 km/h 66% 0.00 mm 0.00 W/m2
11:09 10.8 °C 4.2 °C 1017.1 hPa NE 17 km/h 15 km/h 64% 0.00 mm 0.00 W/m2
11:14 10.9 °C 4.3 °C 1017.1 hPa NE 17 km/h 13 km/h 64% 0.00 mm 0.00 W/m2
11:19 10.9 °C 4.6 °C 1017.1 hPa NE 15 km/h 12 km/h 65% 0.00 mm 0.00 W/m2
11:24 11.0 °C 4.7 °C 1017.1 hPa NE 11 km/h 9 km/h 65% 0.00 mm 0.00 W/m2
11:29 11.0 °C 4.7 °C 1017.0 hPa NE 10 km/h 8 km/h 65% 0.00 mm 0.00 W/m2
11:34 11.2 °C 4.5 °C 1017.0 hPa NE 15 km/h 9 km/h 64% 0.00 mm 0.00 W/m2
11:39 11.3 °C 4.4 °C 1017.0 hPa NNE 15 km/h 10 km/h 63% 0.00 mm 0.00 W/m2
11:44 11.3 °C 4.7 °C 1017.0 hPa NNE 11 km/h 7 km/h 64% 0.00 mm 0.00 W/m2
11:49 11.2 °C 5.1 °C 1017.0 hPa NNE 8 km/h 8 km/h 66% 0.00 mm 0.00 W/m2
11:54 11.3 °C 5.1 °C 1017.0 hPa NNE 13 km/h 11 km/h 66% 0.00 mm 0.00 W/m2
11:59 11.5 °C 4.5 °C 1017.0 hPa NNE 13 km/h 11 km/h 63% 0.00 mm 0.00 W/m2
12:04 11.8 °C 4.7 °C 1017.0 hPa NNE 10 km/h 8 km/h 62% 0.00 mm 0.00 W/m2
12:09 11.8 °C 4.7 °C 1016.9 hPa NNE 11 km/h 9 km/h 62% 0.00 mm 0.00 W/m2
Vejrstation Sortsø Strand
Compliments of Weather Underground - 1.5 mb

© 2006-2021 strandvejr.dk